N377WE KSAN-KLAX
Flight info
| Callsign | N377WE |
|---|---|
| Flight time | 0h 42m |
| Altitude | 8000 |
| Route | CWARD2 SLI |
| Aircraft | C208/L-SDFGR/C |
Departure
| Time | 2026-04-24 19:36 |
|---|---|
| Airport | San Diego International Airport (KSAN) |
Arrival
| Time | 2026-04-24 20:18 |
|---|---|
| Airport | Los Angeles International Airport (KLAX) |
| Time | Latitude | Longitude | Altitude | Speed | Heading |
|---|---|---|---|---|---|
| 2026-04-24 19:13 | 32.73446 | -117.18575 | 4 ft | 0 kts | 197° |
| 2026-04-24 19:28 | 32.73416 | -117.18571 | 17 ft | 9 kts | 157° |
| 2026-04-24 19:29 | 32.73322 | -117.18352 | 18 ft | 25 kts | 107° |
| 2026-04-24 19:29 | 32.73266 | -117.18124 | 17 ft | 32 kts | 107° |
| 2026-04-24 19:29 | 32.73211 | -117.17898 | 16 ft | 25 kts | 106° |
| 2026-04-24 19:30 | 32.73175 | -117.17749 | 18 ft | 16 kts | 106° |
| 2026-04-24 19:30 | 32.73147 | -117.17633 | 17 ft | 10 kts | 104° |
| 2026-04-24 19:30 | 32.73123 | -117.17571 | 16 ft | 7 kts | 144° |
| 2026-04-24 19:30 | 32.73112 | -117.17563 | 16 ft | 0 kts | 148° |
| 2026-04-24 19:34 | 32.73111 | -117.17563 | 16 ft | 2 kts | 148° |
| 2026-04-24 19:34 | 32.73053 | -117.17526 | 17 ft | 10 kts | 168° |
| 2026-04-24 19:34 | 32.73013 | -117.17562 | 17 ft | 0 kts | 285° |
| 2026-04-24 19:34 | 32.73013 | -117.17565 | 17 ft | 3 kts | 287° |
| 2026-04-24 19:35 | 32.73045 | -117.17684 | 15 ft | 29 kts | 286° |
| 2026-04-24 19:35 | 32.73143 | -117.18093 | 15 ft | 76 kts | 285° |
| 2026-04-24 19:35 | 32.73310 | -117.18733 | 279 ft | 80 kts | 279° |
| 2026-04-24 19:35 | 32.73503 | -117.19401 | 592 ft | 88 kts | 284° |
| 2026-04-24 19:36 | 32.73736 | -117.20058 | 1023 ft | 83 kts | 285° |
| 2026-04-24 19:36 | 32.73988 | -117.20658 | 1421 ft | 79 kts | 294° |
| 2026-04-24 19:36 | 32.74296 | -117.21256 | 1620 ft | 95 kts | 292° |
| 2026-04-24 19:36 | 32.74691 | -117.22044 | 1644 ft | 124 kts | 296° |
| 2026-04-24 19:37 | 32.75185 | -117.22981 | 1658 ft | 142 kts | 297° |
| 2026-04-24 19:37 | 32.75728 | -117.23986 | 1828 ft | 143 kts | 298° |
| 2026-04-24 19:37 | 32.76260 | -117.24974 | 2046 ft | 141 kts | 300° |
| 2026-04-24 19:37 | 32.76807 | -117.25965 | 2318 ft | 143 kts | 300° |
| 2026-04-24 19:38 | 32.77306 | -117.26931 | 2686 ft | 132 kts | 298° |
| 2026-04-24 19:38 | 32.77766 | -117.27838 | 3063 ft | 124 kts | 299° |
| 2026-04-24 19:38 | 32.78201 | -117.28685 | 3435 ft | 117 kts | 300° |
| 2026-04-24 19:38 | 32.78617 | -117.29487 | 3798 ft | 111 kts | 301° |
| 2026-04-24 19:39 | 32.79011 | -117.30247 | 4178 ft | 105 kts | 301° |
| 2026-04-24 19:39 | 32.79385 | -117.30964 | 4551 ft | 99 kts | 301° |
| 2026-04-24 19:39 | 32.79738 | -117.31633 | 4923 ft | 92 kts | 304° |
| 2026-04-24 19:39 | 32.80108 | -117.32216 | 5284 ft | 83 kts | 305° |
| 2026-04-24 19:40 | 32.80438 | -117.32741 | 5598 ft | 80 kts | 304° |
| 2026-04-24 19:40 | 32.80777 | -117.33278 | 5860 ft | 83 kts | 304° |
| 2026-04-24 19:40 | 32.81136 | -117.33828 | 6113 ft | 86 kts | 304° |
| 2026-04-24 19:40 | 32.81509 | -117.34395 | 6381 ft | 89 kts | 303° |
| 2026-04-24 19:41 | 32.81895 | -117.34985 | 6615 ft | 92 kts | 303° |
| 2026-04-24 19:41 | 32.82291 | -117.35596 | 6850 ft | 95 kts | 302° |
| 2026-04-24 19:41 | 32.82698 | -117.36224 | 7088 ft | 98 kts | 302° |
| 2026-04-24 19:41 | 32.83117 | -117.36872 | 7325 ft | 100 kts | 302° |
| 2026-04-24 19:42 | 32.83550 | -117.37538 | 7568 ft | 103 kts | 302° |
| 2026-04-24 19:42 | 32.83993 | -117.38225 | 7814 ft | 106 kts | 302° |
| 2026-04-24 19:42 | 32.84449 | -117.38936 | 7992 ft | 115 kts | 302° |
| 2026-04-24 19:42 | 32.84969 | -117.39756 | 8021 ft | 133 kts | 303° |
| 2026-04-24 19:43 | 32.85558 | -117.40672 | 8030 ft | 145 kts | 303° |
| 2026-04-24 19:43 | 32.86191 | -117.41651 | 8029 ft | 153 kts | 303° |
| 2026-04-24 19:43 | 32.86626 | -117.42321 | 8024 ft | 156 kts | 304° |
| 2026-04-24 19:43 | 32.87518 | -117.43705 | 8016 ft | 160 kts | 306° |
| 2026-04-24 19:44 | 32.87989 | -117.44382 | 8012 ft | 161 kts | 307° |
| 2026-04-24 19:44 | 32.88700 | -117.45411 | 8013 ft | 161 kts | 306° |
| 2026-04-24 19:44 | 32.89397 | -117.46459 | 8015 ft | 162 kts | 305° |
| 2026-04-24 19:44 | 32.90084 | -117.47515 | 8015 ft | 161 kts | 304° |
| 2026-04-24 19:45 | 32.90766 | -117.48570 | 8014 ft | 160 kts | 304° |
| 2026-04-24 19:45 | 32.91442 | -117.49622 | 8015 ft | 160 kts | 304° |
| 2026-04-24 19:45 | 32.92115 | -117.50670 | 8015 ft | 159 kts | 304° |
| 2026-04-24 19:45 | 32.92783 | -117.51723 | 8015 ft | 159 kts | 304° |
| 2026-04-24 19:46 | 32.93455 | -117.52775 | 8014 ft | 159 kts | 304° |
| 2026-04-24 19:46 | 32.94127 | -117.53822 | 8013 ft | 159 kts | 304° |
| 2026-04-24 19:46 | 32.94799 | -117.54870 | 8013 ft | 159 kts | 304° |
| 2026-04-24 19:46 | 32.95468 | -117.55914 | 8013 ft | 158 kts | 304° |
| 2026-04-24 19:47 | 32.96133 | -117.56953 | 8016 ft | 158 kts | 304° |
| 2026-04-24 19:47 | 32.96795 | -117.57986 | 8015 ft | 157 kts | 304° |
| 2026-04-24 19:47 | 32.97459 | -117.59022 | 8013 ft | 157 kts | 304° |
| 2026-04-24 19:47 | 32.98124 | -117.60060 | 8009 ft | 157 kts | 304° |
| 2026-04-24 19:48 | 32.98787 | -117.61095 | 8003 ft | 157 kts | 304° |
| 2026-04-24 19:48 | 32.99447 | -117.62126 | 8003 ft | 156 kts | 304° |
| 2026-04-24 19:48 | 33.00765 | -117.64186 | 8014 ft | 157 kts | 304° |
| 2026-04-24 19:49 | 33.02091 | -117.66257 | 8004 ft | 157 kts | 304° |
| 2026-04-24 19:49 | 33.03406 | -117.68317 | 8003 ft | 157 kts | 304° |
| 2026-04-24 19:50 | 33.05390 | -117.71418 | 8004 ft | 157 kts | 304° |
| 2026-04-24 19:50 | 33.06053 | -117.72451 | 8003 ft | 157 kts | 305° |
| 2026-04-24 19:51 | 33.07664 | -117.74242 | 8000 ft | 159 kts | 316° |
| 2026-04-24 19:51 | 33.08507 | -117.75098 | 7999 ft | 159 kts | 316° |
| 2026-04-24 19:52 | 33.10190 | -117.76816 | 8000 ft | 159 kts | 315° |
| 2026-04-24 19:52 | 33.11030 | -117.77673 | 7997 ft | 159 kts | 316° |
| 2026-04-24 19:52 | 33.11870 | -117.78528 | 7993 ft | 159 kts | 316° |
| 2026-04-24 19:52 | 33.12710 | -117.79382 | 7998 ft | 159 kts | 316° |
| 2026-04-24 19:53 | 33.13550 | -117.80238 | 7998 ft | 159 kts | 316° |
| 2026-04-24 19:53 | 33.14385 | -117.81089 | 7998 ft | 159 kts | 316° |
| 2026-04-24 19:53 | 33.16030 | -117.82763 | 7994 ft | 158 kts | 316° |
| 2026-04-24 19:54 | 33.16894 | -117.83641 | 7994 ft | 158 kts | 315° |
| 2026-04-24 19:54 | 33.17733 | -117.84496 | 7996 ft | 158 kts | 316° |
| 2026-04-24 19:54 | 33.18570 | -117.85350 | 7995 ft | 158 kts | 316° |
| 2026-04-24 19:54 | 33.19452 | -117.86143 | 7992 ft | 161 kts | 329° |
| 2026-04-24 19:55 | 33.20182 | -117.86407 | 7992 ft | 165 kts | 346° |
| 2026-04-24 19:55 | 33.21671 | -117.86726 | 7995 ft | 164 kts | 344° |
| 2026-04-24 19:55 | 33.22792 | -117.87013 | 7992 ft | 165 kts | 343° |
| 2026-04-24 19:55 | 33.23916 | -117.87300 | 7997 ft | 165 kts | 343° |
| 2026-04-24 19:56 | 33.25034 | -117.87583 | 7997 ft | 165 kts | 344° |
| 2026-04-24 19:56 | 33.26160 | -117.87865 | 7997 ft | 165 kts | 344° |
| 2026-04-24 19:56 | 33.27285 | -117.88145 | 7998 ft | 165 kts | 344° |
| 2026-04-24 19:56 | 33.28415 | -117.88427 | 7997 ft | 166 kts | 344° |
| 2026-04-24 19:57 | 33.29555 | -117.88710 | 7999 ft | 168 kts | 344° |
| 2026-04-24 19:57 | 33.30705 | -117.88996 | 7998 ft | 169 kts | 344° |
| 2026-04-24 19:57 | 33.31860 | -117.89282 | 7997 ft | 170 kts | 344° |
| 2026-04-24 19:57 | 33.33017 | -117.89572 | 7994 ft | 170 kts | 344° |
| 2026-04-24 19:58 | 33.34174 | -117.89866 | 7991 ft | 170 kts | 344° |
| 2026-04-24 19:58 | 33.35336 | -117.90155 | 7995 ft | 170 kts | 344° |
| 2026-04-24 19:58 | 33.36496 | -117.90444 | 7995 ft | 170 kts | 344° |
| 2026-04-24 19:58 | 33.37657 | -117.90733 | 7995 ft | 170 kts | 344° |
| 2026-04-24 19:59 | 33.38806 | -117.91065 | 7995 ft | 170 kts | 340° |
| 2026-04-24 19:59 | 33.39931 | -117.91484 | 7994 ft | 169 kts | 339° |
| 2026-04-24 19:59 | 33.41058 | -117.91892 | 7993 ft | 169 kts | 339° |
| 2026-04-24 19:59 | 33.42185 | -117.92293 | 7996 ft | 169 kts | 339° |
| 2026-04-24 20:00 | 33.43313 | -117.92694 | 7995 ft | 169 kts | 339° |
| 2026-04-24 20:00 | 33.44440 | -117.93105 | 7990 ft | 169 kts | 338° |
| 2026-04-24 20:00 | 33.45564 | -117.93509 | 7992 ft | 169 kts | 339° |
| 2026-04-24 20:00 | 33.46668 | -117.93913 | 7981 ft | 168 kts | 337° |
| 2026-04-24 20:01 | 33.47799 | -117.94331 | 7986 ft | 168 kts | 339° |
| 2026-04-24 20:01 | 33.48921 | -117.94743 | 7980 ft | 168 kts | 338° |
| 2026-04-24 20:01 | 33.50038 | -117.95151 | 7985 ft | 168 kts | 339° |
| 2026-04-24 20:01 | 33.51159 | -117.95563 | 7984 ft | 168 kts | 337° |
| 2026-04-24 20:02 | 33.51917 | -117.95841 | 7985 ft | 168 kts | 337° |
| 2026-04-24 20:02 | 33.53405 | -117.96367 | 7984 ft | 168 kts | 338° |
| 2026-04-24 20:02 | 33.54526 | -117.96770 | 7986 ft | 169 kts | 338° |
| 2026-04-24 20:02 | 33.55648 | -117.97191 | 7985 ft | 169 kts | 338° |
| 2026-04-24 20:03 | 33.56768 | -117.97617 | 7985 ft | 169 kts | 337° |
| 2026-04-24 20:03 | 33.57899 | -117.98028 | 7865 ft | 168 kts | 340° |
| 2026-04-24 20:03 | 33.59000 | -117.98413 | 7735 ft | 162 kts | 339° |
| 2026-04-24 20:03 | 33.60065 | -117.98803 | 7612 ft | 157 kts | 339° |
| 2026-04-24 20:04 | 33.61079 | -117.99182 | 7488 ft | 149 kts | 336° |
| 2026-04-24 20:04 | 33.62061 | -117.99544 | 7365 ft | 146 kts | 336° |
| 2026-04-24 20:04 | 33.63027 | -117.99901 | 7247 ft | 145 kts | 338° |
| 2026-04-24 20:04 | 33.63988 | -118.00253 | 7125 ft | 144 kts | 337° |
| 2026-04-24 20:05 | 33.64943 | -118.00598 | 7035 ft | 145 kts | 338° |
| 2026-04-24 20:05 | 33.65934 | -118.00970 | 7011 ft | 153 kts | 339° |
| 2026-04-24 20:05 | 33.66965 | -118.01352 | 7017 ft | 159 kts | 340° |
| 2026-04-24 20:05 | 33.68040 | -118.01754 | 6999 ft | 162 kts | 339° |
| 2026-04-24 20:06 | 33.69129 | -118.02142 | 6988 ft | 164 kts | 340° |
| 2026-04-24 20:06 | 33.70220 | -118.02527 | 6983 ft | 164 kts | 340° |
| 2026-04-24 20:06 | 33.71312 | -118.02913 | 6975 ft | 164 kts | 340° |
| 2026-04-24 20:06 | 33.72397 | -118.03298 | 6963 ft | 161 kts | 338° |
| 2026-04-24 20:07 | 33.73100 | -118.03564 | 6970 ft | 160 kts | 336° |
| 2026-04-24 20:07 | 33.74524 | -118.04095 | 6972 ft | 160 kts | 337° |
| 2026-04-24 20:07 | 33.75586 | -118.04484 | 6938 ft | 159 kts | 339° |
| 2026-04-24 20:07 | 33.76650 | -118.04863 | 6836 ft | 157 kts | 340° |
| 2026-04-24 20:08 | 33.77638 | -118.05248 | 6642 ft | 143 kts | 333° |
| 2026-04-24 20:08 | 33.78418 | -118.05897 | 6438 ft | 132 kts | 309° |
| 2026-04-24 20:08 | 33.78925 | -118.06787 | 6260 ft | 128 kts | 297° |
| 2026-04-24 20:08 | 33.79346 | -118.07727 | 6061 ft | 127 kts | 296° |
| 2026-04-24 20:09 | 33.79766 | -118.08660 | 5882 ft | 128 kts | 297° |
| 2026-04-24 20:09 | 33.80191 | -118.09596 | 5676 ft | 127 kts | 296° |
| 2026-04-24 20:09 | 33.80608 | -118.10530 | 5465 ft | 127 kts | 296° |
| 2026-04-24 20:09 | 33.81018 | -118.11469 | 5267 ft | 127 kts | 295° |
| 2026-04-24 20:10 | 33.81436 | -118.12399 | 5071 ft | 127 kts | 296° |
| 2026-04-24 20:10 | 33.81852 | -118.13309 | 5029 ft | 121 kts | 296° |
| 2026-04-24 20:10 | 33.82285 | -118.14138 | 4987 ft | 113 kts | 304° |
| 2026-04-24 20:10 | 33.82754 | -118.14875 | 5004 ft | 109 kts | 304° |
| 2026-04-24 20:11 | 33.83230 | -118.15613 | 4892 ft | 114 kts | 303° |
| 2026-04-24 20:11 | 33.83713 | -118.16380 | 4782 ft | 116 kts | 303° |
| 2026-04-24 20:11 | 33.84206 | -118.17147 | 4626 ft | 116 kts | 304° |
| 2026-04-24 20:11 | 33.84711 | -118.17945 | 4515 ft | 130 kts | 304° |
| 2026-04-24 20:12 | 33.85305 | -118.18875 | 4413 ft | 148 kts | 305° |
| 2026-04-24 20:12 | 33.85969 | -118.19888 | 4303 ft | 159 kts | 307° |
| 2026-04-24 20:12 | 33.86666 | -118.20950 | 4177 ft | 165 kts | 306° |
| 2026-04-24 20:12 | 33.87363 | -118.22015 | 4053 ft | 167 kts | 306° |
| 2026-04-24 20:13 | 33.88096 | -118.23124 | 4013 ft | 163 kts | 306° |
| 2026-04-24 20:13 | 33.88796 | -118.24185 | 4000 ft | 161 kts | 307° |
| 2026-04-24 20:13 | 33.89505 | -118.25214 | 3987 ft | 159 kts | 306° |
| 2026-04-24 20:13 | 33.90188 | -118.26256 | 3925 ft | 160 kts | 306° |
| 2026-04-24 20:14 | 33.90886 | -118.27330 | 3807 ft | 165 kts | 307° |
| 2026-04-24 20:14 | 33.91561 | -118.28352 | 3616 ft | 144 kts | 307° |
| 2026-04-24 20:14 | 33.92123 | -118.29196 | 3386 ft | 119 kts | 303° |
| 2026-04-24 20:14 | 33.92582 | -118.30023 | 3053 ft | 118 kts | 298° |
| 2026-04-24 20:15 | 33.93021 | -118.30855 | 2710 ft | 119 kts | 299° |
| 2026-04-24 20:15 | 33.93444 | -118.31666 | 2445 ft | 105 kts | 295° |
| 2026-04-24 20:15 | 33.93737 | -118.32335 | 2204 ft | 85 kts | 287° |
| 2026-04-24 20:15 | 33.93956 | -118.32986 | 1903 ft | 81 kts | 278° |
| 2026-04-24 20:16 | 33.94120 | -118.33630 | 1606 ft | 81 kts | 273° |
| 2026-04-24 20:16 | 33.94171 | -118.34296 | 1303 ft | 78 kts | 264° |
| 2026-04-24 20:16 | 33.94138 | -118.34945 | 1005 ft | 79 kts | 255° |
| 2026-04-24 20:16 | 33.94062 | -118.35615 | 690 ft | 83 kts | 253° |
| 2026-04-24 20:17 | 33.93949 | -118.36276 | 534 ft | 77 kts | 255° |
| 2026-04-24 20:17 | 33.93821 | -118.37550 | 300 ft | 77 kts | 261° |
| 2026-04-24 20:17 | 33.93746 | -118.38183 | 162 ft | 75 kts | 261° |
| 2026-04-24 20:18 | 33.93708 | -118.38570 | 103 ft | 65 kts | 263° |
| 2026-04-24 20:18 | 33.93646 | -118.39146 | 91 ft | 29 kts | 263° |
| 2026-04-24 20:18 | 33.93630 | -118.39309 | 91 ft | 17 kts | 262° |
| 2026-04-24 20:18 | 33.93586 | -118.39372 | 92 ft | 9 kts | 183° |
| 2026-04-24 20:19 | 33.93531 | -118.39370 | 92 ft | 5 kts | 165° |
| 2026-04-24 20:19 | 33.93509 | -118.39361 | 94 ft | 3 kts | 149° |
| 2026-04-24 20:19 | 33.93503 | -118.39346 | 92 ft | 1 kts | 92° |
| 2026-04-24 20:19 | 33.93506 | -118.39323 | 92 ft | 8 kts | 81° |
| 2026-04-24 20:20 | 33.93517 | -118.39211 | 91 ft | 15 kts | 82° |
| 2026-04-24 20:20 | 33.93528 | -118.39112 | 92 ft | 9 kts | 81° |
| 2026-04-24 20:20 | 33.93533 | -118.39061 | 92 ft | 3 kts | 84° |
| 2026-04-24 20:20 | 33.93539 | -118.38998 | 92 ft | 11 kts | 84° |
| 2026-04-24 20:21 | 33.93548 | -118.38893 | 92 ft | 13 kts | 104° |
| 2026-04-24 20:21 | 33.93495 | -118.38836 | 92 ft | 9 kts | 138° |
| 2026-04-24 20:21 | 33.93459 | -118.38791 | 91 ft | 6 kts | 131° |
| 2026-04-24 20:21 | 33.93426 | -118.38776 | 93 ft | 4 kts | 173° |
| 2026-04-24 20:22 | 33.93406 | -118.38773 | 92 ft | 1 kts | 172° |
| 2026-04-24 20:22 | 33.93399 | -118.38772 | 92 ft | 0 kts | 172° |